Time;durP1;ratioP1;P1;durP2;ratioP2;P2;SDS_P1;SDS_P2;PMS_P1;PMS_P2;Temp;Humidity;BMP_temperature;BMP_pressure;BME280_temperature;BME280_humidity;BME280_pressure;Samples;Min_cycle;Max_cycle;Signal;HPM_P1;HPM_P2
2022/06/03 00:00:19;;;;;;;2.53;1.60;;;15.60;89.60;;;;;;4951126;29;20490;-36
2022/06/03 00:03:22;;;;;;;3.45;1.80;;;15.60;89.80;;;;;;4950701;28;20106;-34
2022/06/03 00:06:12;;;;;;;2.70;1.60;;;15.50;90.00;;;;;;4949373;28;20019;-35
2022/06/03 00:08:52;;;;;;;1.65;1.55;;;15.50;90.10;;;;;;4942903;29;20464;-36
2022/06/03 00:11:39;;;;;;;1.75;1.50;;;15.40;90.20;;;;;;4950257;28;20411;-34
2022/06/03 00:14:42;;;;;;;2.50;1.95;;;15.40;90.40;;;;;;4950775;29;20035;-36
2022/06/03 00:17:45;;;;;;;3.25;1.70;;;15.30;90.50;;;;;;4950351;29;20079;-36
2022/06/03 00:20:14;;;;;;;1.88;1.77;;;15.20;90.70;;;;;;4931006;29;20487;-36
2022/06/03 00:23:02;;;;;;;2.40;2.20;;;15.20;90.80;;;;;;4947002;29;20153;-35
2022/06/03 00:25:43;;;;;;;2.10;1.88;;;15.20;90.90;;;;;;4930990;29;20043;-34
2022/06/03 00:28:14;;;;;;;2.65;1.80;;;15.20;91.00;;;;;;4949255;29;20074;-35
2022/06/03 00:30:59;;;;;;;2.35;2.15;;;15.10;91.10;;;;;;4949672;29;20035;-35
2022/06/03 00:33:49;;;;;;;2.30;2.10;;;15.10;91.20;;;;;;4949124;29;20111;-36
2022/06/03 00:37:04;;;;;;;2.65;1.98;;;15.10;91.20;;;;;;4950422;29;20042;-36
2022/06/03 00:40:10;;;;;;;2.20;2.00;;;15.10;91.30;;;;;;4939087;29;20039;-35
2022/06/03 00:42:53;;;;;;;1.95;1.85;;;15.10;91.50;;;;;;4938215;29;20039;-36
2022/06/03 00:45:37;;;;;;;3.15;2.00;;;15.00;91.50;;;;;;4949878;28;20066;-35
2022/06/03 00:48:29;;;;;;;3.42;2.17;;;15.00;91.60;;;;;;4949552;28;20623;-36
2022/06/03 00:51:12;;;;;;;3.45;2.38;;;15.00;91.70;;;;;;4950083;28;20038;-36
2022/06/03 00:54:01;;;;;;;2.50;2.30;;;14.90;91.80;;;;;;4948648;29;20038;-36
2022/06/03 00:56:56;;;;;;;2.47;1.95;;;14.90;91.80;;;;;;4920390;29;20059;-37
2022/06/03 00:59:42;;;;;;;2.25;2.05;;;14.80;92.00;;;;;;4949765;28;20035;-35
2022/06/03 01:02:40;;;;;;;2.80;1.80;;;14.80;92.00;;;;;;4948780;28;20030;-36
2022/06/03 01:05:24;;;;;;;2.28;2.00;;;14.80;92.10;;;;;;4949621;29;20587;-37
2022/06/03 01:08:27;;;;;;;2.10;1.90;;;14.70;92.10;;;;;;4949332;28;20062;-36
2022/06/03 01:11:01;;;;;;;;;;;14.70;92.30;;;;;;4944213;29;20027;-36
2022/06/03 01:14:23;;;;;;;2.10;1.90;;;14.70;92.20;;;;;;4948867;29;19978;-38
2022/06/03 01:17:04;;;;;;;2.30;2.10;;;14.60;92.30;;;;;;4940428;29;20138;-35
2022/06/03 01:19:51;;;;;;;2.50;2.30;;;14.60;92.40;;;;;;4948719;28;20023;-35
2022/06/03 01:23:03;;;;;;;2.65;2.10;;;14.50;92.50;;;;;;4929723;29;20051;-37
2022/06/03 01:26:07;;;;;;;2.25;1.92;;;14.50;92.70;;;;;;4946387;29;20027;-36
2022/06/03 01:29:05;;;;;;;3.03;2.47;;;14.50;92.70;;;;;;4948386;28;20035;-37
2022/06/03 01:31:49;;;;;;;1.70;1.60;;;14.50;92.80;;;;;;4942195;29;20054;-36
2022/06/03 01:34:39;;;;;;;2.58;2.38;;;14.50;92.80;;;;;;4949241;29;20035;-38
2022/06/03 01:37:36;;;;;;;2.78;2.40;;;14.50;92.90;;;;;;4948600;29;20058;-37
2022/06/03 01:40:21;;;;;;;3.75;1.92;;;14.50;93.00;;;;;;4949430;28;20113;-35
2022/06/03 01:43:05;;;;;;;2.60;2.40;;;14.50;93.00;;;;;;4929883;29;20039;-36
2022/06/03 01:45:43;;;;;;;2.40;2.20;;;14.50;93.10;;;;;;4945423;29;20065;-36
2022/06/03 01:48:19;;;;;;;2.00;1.80;;;14.50;93.20;;;;;;4949116;29;20027;-35
2022/06/03 01:51:09;;;;;;;2.65;2.30;;;14.50;93.20;;;;;;4947812;29;20379;-37
2022/06/03 01:54:01;;;;;;;2.20;2.00;;;14.50;93.20;;;;;;4948600;29;20431;-36
2022/06/03 01:56:55;;;;;;;2.38;2.20;;;14.50;93.30;;;;;;4948119;29;20050;-36
2022/06/03 01:59:35;;;;;;;3.35;1.98;;;14.50;93.40;;;;;;4948535;28;20130;-37
2022/06/03 02:02:47;;;;;;;2.28;2.08;;;14.50;93.40;;;;;;4949122;28;20074;-37
2022/06/03 02:05:25;;;;;;;2.05;1.95;;;14.50;93.50;;;;;;4947874;28;20042;-36
2022/06/03 02:08:28;;;;;;;2.08;1.70;;;14.50;93.40;;;;;;4948452;29;20487;-35
2022/06/03 02:11:03;;;;;;;1.95;1.85;;;14.50;93.40;;;;;;4947835;29;20034;-37
2022/06/03 02:13:40;;;;;;;2.03;1.92;;;14.50;93.50;;;;;;4947807;28;20275;-37
2022/06/03 02:16:17;;;;;;;2.60;2.30;;;14.50;93.50;;;;;;4948490;28;20607;-36
2022/06/03 02:19:04;;;;;;;2.10;1.90;;;14.50;93.60;;;;;;4947302;29;20039;-36
2022/06/03 02:22:12;;;;;;;4.13;2.22;;;14.50;93.60;;;;;;4947674;28;20027;-35
2022/06/03 02:25:01;;;;;;;2.55;2.00;;;14.50;93.60;;;;;;4928584;29;20031;-36
2022/06/03 02:27:44;;;;;;;3.55;2.63;;;14.50;93.70;;;;;;4947756;29;20463;-36
2022/06/03 02:30:25;;;;;;;3.17;2.10;;;14.50;93.70;;;;;;4948587;29;20066;-36
2022/06/03 02:33:27;;;;;;;2.03;1.92;;;14.50;93.70;;;;;;4945167;29;20027;-36
2022/06/03 02:36:11;;;;;;;2.60;2.10;;;14.50;93.70;;;;;;4948655;28;20035;-37
2022/06/03 02:38:59;;;;;;;2.67;2.17;;;14.50;93.80;;;;;;4948180;29;20195;-36
2022/06/03 02:41:28;;;;;;;2.17;1.98;;;14.50;93.80;;;;;;4947358;28;20110;-36
2022/06/03 02:43:59;;;;;;;4.18;2.35;;;14.50;93.90;;;;;;4947794;29;20054;-37
2022/06/03 02:46:59;;;;;;;2.95;2.10;;;14.50;93.90;;;;;;4947086;29;20090;-37
2022/06/03 02:49:37;;;;;;;2.40;1.90;;;14.50;94.00;;;;;;4948124;29;20031;-35
2022/06/03 02:52:30;;;;;;;2.55;1.88;;;14.50;93.90;;;;;;4947650;29;20058;-36
2022/06/03 02:55:04;;;;;;;3.33;2.10;;;14.50;93.90;;;;;;4947556;29;20461;-35
2022/06/03 02:57:54;;;;;;;1.88;1.77;;;14.40;93.90;;;;;;4947269;29;20258;-36
2022/06/03 03:00:42;;;;;;;3.78;2.40;;;14.40;94.00;;;;;;4928339;29;20057;-35
2022/06/03 03:03:26;;;;;;;2.22;2.03;;;14.40;94.10;;;;;;4945279;29;20024;-36
2022/06/03 03:06:17;;;;;;;2.33;2.13;;;14.30;94.10;;;;;;4947863;29;20039;-35
2022/06/03 03:09:29;;;;;;;3.08;2.40;;;14.30;94.20;;;;;;4947226;29;20137;-35
2022/06/03 03:12:19;;;;;;;2.65;2.22;;;14.30;94.30;;;;;;4937864;29;20039;-35
2022/06/03 03:15:23;;;;;;;2.33;2.10;;;14.20;94.30;;;;;;4938007;29;20054;-35
2022/06/03 03:18:22;;;;;;;2.45;2.25;;;14.20;94.30;;;;;;4925378;29;20031;-35
2022/06/03 03:21:13;;;;;;;3.75;2.85;;;14.20;94.40;;;;;;4925061;29;20036;-35
2022/06/03 03:24:01;;;;;;;2.72;2.53;;;14.20;94.50;;;;;;4943664;29;20031;-36
2022/06/03 03:27:08;;;;;;;3.38;2.70;;;14.20;94.50;;;;;;4930575;29;20570;-35
2022/06/03 03:29:58;;;;;;;2.05;1.90;;;14.10;94.50;;;;;;4940534;29;20138;-35
2022/06/03 03:32:52;;;;;;;2.30;2.10;;;14.10;94.50;;;;;;4950941;29;20042;-35
2022/06/03 03:35:35;;;;;;;2.75;2.42;;;14.10;94.60;;;;;;4941344;29;20167;-35
2022/06/03 03:38:50;;;;;;;3.00;2.60;;;14.00;94.60;;;;;;4951551;29;20046;-36
2022/06/03 03:41:36;;;;;;;2.10;1.92;;;14.00;94.70;;;;;;4951313;29;20027;-34
2022/06/03 03:44:17;;;;;;;2.95;2.00;;;14.00;94.70;;;;;;4950884;28;20434;-36
2022/06/03 03:47:01;;;;;;;3.17;2.92;;;13.90;94.80;;;;;;4950979;28;20486;-35
2022/06/03 03:50:06;;;;;;;3.00;2.40;;;13.90;94.80;;;;;;4950141;29;20358;-36
2022/06/03 03:52:56;;;;;;;2.60;2.40;;;13.90;94.90;;;;;;4950766;28;20117;-35
2022/06/03 03:55:43;;;;;;;3.17;2.88;;;13.80;95.00;;;;;;4950277;29;20588;-35
2022/06/03 03:58:56;;;;;;;2.85;2.35;;;13.80;95.00;;;;;;4950274;29;20047;-34
2022/06/03 04:01:50;;;;;;;2.85;2.33;;;13.80;95.00;;;;;;4943170;29;20068;-35
2022/06/03 04:04:35;;;;;;;2.30;2.10;;;13.80;95.10;;;;;;4950563;28;20027;-36
2022/06/03 04:07:26;;;;;;;3.00;2.80;;;13.80;95.10;;;;;;4951711;29;20082;-35
2022/06/03 04:09:54;;;;;;;3.40;2.85;;;13.80;95.20;;;;;;4950945;28;20051;-36
2022/06/03 04:12:42;;;;;;;3.35;2.95;;;13.70;95.20;;;;;;4949928;29;20379;-36
2022/06/03 04:15:46;;;;;;;3.10;2.80;;;13.70;95.30;;;;;;4950741;29;20508;-38
2022/06/03 04:18:25;;;;;;;2.90;2.70;;;13.70;95.40;;;;;;4931652;29;20087;-35
2022/06/03 04:21:07;;;;;;;3.20;2.83;;;13.70;95.40;;;;;;4948579;29;20031;-36
2022/06/03 04:23:39;;;;;;;3.50;3.20;;;13.70;95.40;;;;;;4950358;28;20134;-36
2022/06/03 04:26:24;;;;;;;2.95;2.65;;;13.60;95.40;;;;;;4949906;28;20491;-36
2022/06/03 04:29:35;;;;;;;2.78;2.42;;;13.60;95.50;;;;;;4950694;29;20471;-35
2022/06/03 04:32:03;;;;;;;2.22;2.08;;;13.60;95.50;;;;;;4949210;29;20027;-36
2022/06/03 04:35:06;;;;;;;4.05;2.92;;;13.60;95.50;;;;;;4949187;29;20462;-36
2022/06/03 04:38:15;;;;;;;3.47;2.50;;;13.60;95.60;;;;;;4939452;29;20039;-34
2022/06/03 04:41:05;;;;;;;3.20;2.67;;;13.60;95.70;;;;;;4948839;28;20035;-35
2022/06/03 04:44:01;;;;;;;3.33;3.03;;;13.50;95.70;;;;;;4949798;29;20027;-36
2022/06/03 04:46:33;;;;;;;2.45;2.25;;;13.50;95.70;;;;;;4948717;28;20038;-35
2022/06/03 04:49:01;;;;;;;2.90;2.60;;;13.50;95.80;;;;;;4938827;29;20027;-36
2022/06/03 04:51:49;;;;;;;2.83;2.53;;;13.50;95.80;;;;;;4949241;29;20180;-35
2022/06/03 04:54:42;;;;;;;2.83;2.53;;;13.60;95.90;;;;;;4929804;29;20423;-35
2022/06/03 04:57:13;;;;;;;2.90;2.30;;;13.60;96.00;;;;;;4948893;29;20078;-37
2022/06/03 05:00:07;;;;;;;3.08;2.85;;;13.60;96.10;;;;;;4948973;29;20043;-36
2022/06/03 05:02:53;;;;;;;3.13;2.80;;;13.60;96.00;;;;;;4948409;29;20039;-35
2022/06/03 05:05:34;;;;;;;2.90;2.50;;;13.60;96.10;;;;;;4949991;29;20484;-36
2022/06/03 05:08:25;;;;;;;3.40;3.13;;;13.70;96.10;;;;;;4946994;29;20312;-36
2022/06/03 05:11:16;;;;;;;3.63;2.75;;;13.80;96.10;;;;;;4949551;28;20406;-36
2022/06/03 05:13:51;;;;;;;3.45;2.67;;;13.80;96.10;;;;;;4940637;29;20449;-37
2022/06/03 05:16:45;;;;;;;2.55;2.28;;;13.90;96.10;;;;;;4949629;29;20038;-35
2022/06/03 05:19:13;;;;;;;2.72;2.53;;;13.90;96.20;;;;;;4950074;29;20061;-36
2022/06/03 05:21:57;;;;;;;2.65;2.45;;;14.00;96.10;;;;;;4948444;29;20030;-37
2022/06/03 05:24:37;;;;;;;2.85;2.60;;;14.00;96.20;;;;;;4949565;29;20039;-37
2022/06/03 05:27:27;;;;;;;3.00;2.70;;;14.10;96.20;;;;;;4949681;29;20030;-37
2022/06/03 05:30:19;;;;;;;2.65;2.40;;;14.10;96.10;;;;;;4948754;28;20431;-37
2022/06/03 05:32:51;;;;;;;2.50;2.30;;;14.20;96.00;;;;;;4937706;29;20062;-37
2022/06/03 05:35:37;;;;;;;2.78;2.58;;;14.20;96.00;;;;;;4948923;28;20437;-38
2022/06/03 05:38:41;;;;;;;2.88;2.67;;;14.30;96.10;;;;;;4948951;29;20050;-37
2022/06/03 05:44:48;;;;;;;3.17;2.80;;;14.40;96.00;;;;;;4945011;29;20050;-36
2022/06/03 05:47:23;;;;;;;2.35;2.10;;;14.40;96.00;;;;;;4947165;28;20031;-37
2022/06/03 05:50:01;;;;;;;3.33;2.20;;;14.50;96.00;;;;;;4942238;29;20252;-37
2022/06/03 05:53:07;;;;;;;2.60;2.40;;;14.50;95.90;;;;;;4946996;29;20511;-39
2022/06/03 05:55:51;;;;;;;3.08;2.50;;;14.60;96.00;;;;;;4947320;28;20106;-37
2022/06/03 05:58:39;;;;;;;3.53;2.42;;;14.60;95.90;;;;;;4947789;29;20039;-39
2022/06/03 06:01:44;;;;;;;3.10;2.80;;;14.60;95.90;;;;;;4945260;29;20094;-37
2022/06/03 06:04:43;;;;;;;3.38;2.70;;;14.70;95.90;;;;;;4946665;28;20105;-37
2022/06/03 06:07:24;;;;;;;3.72;2.65;;;14.80;95.80;;;;;;4948569;29;20046;-37
2022/06/03 06:10:00;;;;;;;3.72;3.00;;;14.80;95.80;;;;;;4946809;29;20085;-37
2022/06/03 06:12:36;;;;;;;2.80;2.60;;;14.80;95.80;;;;;;4946700;28;20581;-38
2022/06/03 06:15:27;;;;;;;3.28;2.72;;;14.90;95.80;;;;;;4948073;28;20475;-37
2022/06/03 06:17:58;;;;;;;3.10;2.33;;;14.90;95.80;;;;;;4946838;28;20043;-37
2022/06/03 06:20:45;;;;;;;2.83;2.60;;;15.00;95.80;;;;;;4946866;29;20487;-39
2022/06/03 06:23:38;;;;;;;3.22;2.88;;;15.00;95.80;;;;;;4947365;28;20027;-37
2022/06/03 06:26:09;;;;;;;3.50;3.17;;;15.10;95.70;;;;;;4937951;29;20035;-37
2022/06/03 06:28:57;;;;;;;2.67;2.47;;;15.10;95.70;;;;;;4947530;28;20035;-36
2022/06/03 06:31:52;;;;;;;2.92;2.72;;;15.10;95.60;;;;;;4941898;29;20027;-37
2022/06/03 06:34:38;;;;;;;2.65;2.45;;;15.20;95.70;;;;;;4947561;29;20023;-36
2022/06/03 06:37:33;;;;;;;4.10;2.70;;;15.30;95.60;;;;;;4947853;28;20058;-37
2022/06/03 06:40:15;;;;;;;4.82;2.53;;;15.30;95.60;;;;;;4947740;29;20094;-38
2022/06/03 06:42:48;;;;;;;2.90;2.60;;;15.40;95.60;;;;;;4947099;29;20027;-37
2022/06/03 06:45:40;;;;;;;3.78;2.75;;;15.40;95.60;;;;;;4946066;29;20054;-38
2022/06/03 06:48:43;;;;;;;2.30;2.10;;;15.40;95.60;;;;;;4929322;29;20038;-37
2022/06/03 06:51:33;;;;;;;2.90;2.30;;;15.50;95.60;;;;;;4947844;29;20087;-36
2022/06/03 06:54:44;;;;;;;2.45;1.90;;;15.50;95.50;;;;;;4945808;29;20040;-38
2022/06/03 06:57:23;;;;;;;2.35;2.15;;;15.60;95.50;;;;;;4938776;29;20130;-37
2022/06/03 06:59:59;;;;;;;2.45;2.25;;;15.60;95.50;;;;;;4945966;28;20131;-37
2022/06/03 07:02:24;;;;;;;4.20;2.10;;;15.70;95.50;;;;;;4947059;29;20439;-37
2022/06/03 07:05:04;;;;;;;2.10;1.92;;;15.70;95.40;;;;;;4947120;29;20542;-37
2022/06/03 07:07:36;;;;;;;2.65;2.45;;;15.80;95.40;;;;;;4946407;28;20067;-38
2022/06/03 07:10:12;;;;;;;2.30;2.10;;;15.80;95.50;;;;;;4947971;28;20047;-38
2022/06/03 07:13:09;;;;;;;2.88;2.55;;;15.90;95.50;;;;;;4947235;29;20030;-37
2022/06/03 07:16:00;;;;;;;3.70;2.30;;;16.00;95.40;;;;;;4945305;28;20107;-37
2022/06/03 07:21:54;;;;;;;2.50;2.30;;;16.00;95.30;;;;;;4946289;29;20396;-37
2022/06/03 07:24:52;;;;;;;2.35;1.80;;;16.20;95.30;;;;;;4927928;29;20143;-37
2022/06/03 07:27:45;;;;;;;2.10;2.00;;;16.20;95.20;;;;;;4945883;29;20063;-37
2022/06/03 07:30:48;;;;;;;2.95;2.15;;;16.30;95.20;;;;;;4947223;29;20479;-38
2022/06/03 07:33:31;;;;;;;1.80;1.70;;;16.30;95.20;;;;;;4937426;29;20055;-39
2022/06/03 07:36:03;;;;;;;2.22;2.03;;;16.40;95.20;;;;;;4946717;29;20024;-38
2022/06/03 07:39:02;;;;;;;2.03;1.92;;;16.40;95.10;;;;;;4946633;28;20083;-38
2022/06/03 07:41:34;;;;;;;1.75;1.65;;;16.50;95.10;;;;;;4946229;29;20034;-39
2022/06/03 07:44:08;;;;;;;2.38;1.92;;;16.50;95.00;;;;;;4946477;28;20039;-36
2022/06/03 07:46:49;;;;;;;3.53;1.92;;;16.70;95.00;;;;;;4946971;29;20451;-37
2022/06/03 07:49:16;;;;;;;4.13;2.53;;;16.70;95.00;;;;;;4946796;28;20055;-37
2022/06/03 07:51:47;;;;;;;2.80;2.00;;;16.70;94.90;;;;;;4946717;28;20047;-38
2022/06/03 07:54:35;;;;;;;2.50;2.00;;;16.80;94.90;;;;;;4946802;28;20034;-36
2022/06/03 07:57:07;;;;;;;3.00;1.90;;;16.90;94.90;;;;;;4946808;28;20377;-40
2022/06/03 07:59:35;;;;;;;1.97;1.73;;;16.90;94.80;;;;;;4947118;28;20091;-37
2022/06/03 08:02:18;;;;;;;1.83;1.67;;;17.00;94.80;;;;;;4947595;28;20550;-38
2022/06/03 08:04:48;;;;;;;1.58;1.48;;;17.10;94.70;;;;;;4946200;28;20035;-37
2022/06/03 08:13:07;;;;;;;1.60;1.48;;;17.20;94.70;;;;;;4949934;28;20111;-37
2022/06/03 08:15:39;;;;;;;2.40;1.83;;;17.30;94.70;;;;;;4950323;28;20020;-38
2022/06/03 08:18:07;;;;;;;2.07;1.87;;;17.30;94.60;;;;;;4949818;29;20039;-37
2022/06/03 08:20:47;;;;;;;1.83;1.70;;;17.40;94.50;;;;;;4950299;28;20089;-37
2022/06/03 08:23:20;;;;;;;1.95;1.85;;;17.50;94.40;;;;;;4949858;28;20093;-38
2022/06/03 08:25:50;;;;;;;2.38;1.90;;;17.60;94.20;;;;;;4947331;28;20176;-36
2022/06/03 08:28:21;;;;;;;1.90;1.50;;;17.60;94.10;;;;;;4950538;29;20057;-37
2022/06/03 08:30:50;;;;;;;1.55;1.45;;;17.70;94.10;;;;;;4950053;28;20027;-37
2022/06/03 08:33:28;;;;;;;2.00;1.80;;;17.80;94.10;;;;;;4949916;28;20035;-43
2022/06/03 08:35:53;;;;;;;1.60;1.50;;;17.90;94.10;;;;;;4950873;28;20455;-38
2022/06/03 08:38:31;;;;;;;2.00;1.73;;;17.90;94.00;;;;;;4949376;29;20110;-37
2022/06/03 08:41:30;;;;;;;3.00;1.80;;;18.00;93.90;;;;;;4951049;28;20042;-39
2022/06/03 08:44:01;;;;;;;2.67;1.90;;;18.10;93.70;;;;;;4950099;28;20015;-37
2022/06/03 08:46:28;;;;;;;1.48;1.38;;;18.10;93.60;;;;;;4949040;29;20111;-38
2022/06/03 08:49:02;;;;;;;1.60;1.50;;;18.20;93.50;;;;;;4950032;29;20519;-37
2022/06/03 08:51:40;;;;;;;2.35;2.15;;;18.20;93.40;;;;;;4949087;29;20411;-38
2022/06/03 08:54:17;;;;;;;1.80;1.70;;;18.30;92.90;;;;;;4949916;28;20073;-38
2022/06/03 08:56:45;;;;;;;2.10;1.70;;;18.40;92.70;;;;;;4949652;28;20579;-38
2022/06/03 08:59:18;;;;;;;2.83;2.20;;;18.40;92.70;;;;;;4949379;28;20247;-38
2022/06/03 09:01:53;;;;;;;1.95;1.70;;;18.50;92.60;;;;;;4949796;29;20071;-39
2022/06/03 09:04:24;;;;;;;1.85;1.73;;;18.60;92.60;;;;;;4948880;28;20094;-38
2022/06/03 09:07:10;;;;;;;1.60;1.48;;;18.70;92.60;;;;;;4948926;29;20078;-38
2022/06/03 09:10:02;;;;;;;1.73;1.30;;;18.70;92.60;;;;;;4948958;28;20062;-39
2022/06/03 09:12:33;;;;;;;2.65;1.50;;;18.80;92.60;;;;;;4949355;29;20031;-38
2022/06/03 09:15:10;;;;;;;2.55;1.30;;;18.90;92.50;;;;;;4948180;29;20026;-39
2022/06/03 09:17:41;;;;;;;1.55;1.35;;;18.80;92.50;;;;;;4948649;28;20043;-37
2022/06/03 09:20:22;;;;;;;1.70;1.10;;;18.90;92.40;;;;;;4943428;28;20110;-38
2022/06/03 09:22:50;;;;;;;1.23;1.13;;;19.00;92.40;;;;;;4948678;28;20035;-37
2022/06/03 09:25:17;;;;;;;1.20;1.00;;;19.00;92.30;;;;;;4948080;28;20356;-39
2022/06/03 09:27:46;;;;;;;1.20;0.90;;;19.10;92.20;;;;;;4947049;28;20526;-38
2022/06/03 09:30:15;;;;;;;1.58;1.00;;;19.10;92.10;;;;;;4948076;28;20020;-38
2022/06/03 09:32:49;;;;;;;0.95;0.90;;;19.20;92.00;;;;;;4948971;28;20062;-37
2022/06/03 09:35:21;;;;;;;1.42;0.90;;;19.30;91.80;;;;;;4947924;28;20134;-37
2022/06/03 09:37:53;;;;;;;1.15;1.05;;;19.40;91.40;;;;;;4948815;28;20502;-40
2022/06/03 09:40:31;;;;;;;0.93;0.93;;;19.40;91.20;;;;;;4948590;28;20031;-46
2022/06/03 09:43:20;;;;;;;1.00;0.90;;;19.50;91.10;;;;;;4948246;29;20042;-37
2022/06/03 09:45:49;;;;;;;1.42;0.95;;;19.60;90.90;;;;;;4948014;29;20090;-36
2022/06/03 09:48:17;;;;;;;1.23;1.10;;;19.70;90.80;;;;;;4948266;29;20054;-38
2022/06/03 09:50:50;;;;;;;1.05;0.95;;;19.70;90.60;;;;;;4948051;28;20138;-37
2022/06/03 09:53:20;;;;;;;0.90;0.90;;;19.80;90.50;;;;;;4948159;28;20063;-36
2022/06/03 09:55:57;;;;;;;0.77;0.77;;;19.90;90.40;;;;;;4947558;28;20033;-37
2022/06/03 09:58:31;;;;;;;1.17;1.10;;;19.90;90.20;;;;;;4948589;28;20058;-37
2022/06/03 10:00:58;;;;;;;1.65;1.20;;;20.00;89.10;;;;;;4948593;28;20034;-40
2022/06/03 10:03:25;;;;;;;1.45;1.13;;;20.10;89.00;;;;;;4947075;28;20031;-38
2022/06/03 10:05:54;;;;;;;2.22;1.30;;;20.20;89.10;;;;;;4948201;28;20146;-37
2022/06/03 10:08:24;;;;;;;1.38;1.27;;;20.20;88.80;;;;;;4948627;28;20147;-38
2022/06/03 10:13:39;;;;;;;2.17;1.30;;;20.30;88.20;;;;;;4937663;29;20082;-38
2022/06/03 10:16:07;;;;;;;0.90;0.90;;;20.30;88.00;;;;;;4947085;28;20089;-37
2022/06/03 10:18:43;;;;;;;1.10;1.00;;;20.30;87.40;;;;;;4947161;28;20086;-37
2022/06/03 10:21:10;;;;;;;1.08;1.00;;;20.40;87.10;;;;;;4932645;28;20022;-36
2022/06/03 10:24:03;;;;;;;1.65;0.98;;;20.50;86.20;;;;;;4946507;28;20034;-36
2022/06/03 10:26:48;;;;;;;1.50;1.10;;;20.50;86.20;;;;;;4946840;28;20063;-36
2022/06/03 10:29:17;;;;;;;1.10;1.10;;;20.60;86.10;;;;;;4939384;29;20035;-37
2022/06/03 10:31:48;;;;;;;1.23;1.20;;;20.60;85.70;;;;;;4947137;28;20032;-37
2022/06/03 10:34:22;;;;;;;1.58;1.20;;;20.70;84.20;;;;;;4937059;28;20166;-37
2022/06/03 10:36:49;;;;;;;1.60;1.33;;;20.70;84.70;;;;;;4932821;29;20418;-38
2022/06/03 10:39:17;;;;;;;1.27;1.10;;;20.80;84.20;;;;;;4947210;28;20027;-37
2022/06/03 10:41:49;;;;;;;1.27;1.20;;;20.80;84.20;;;;;;4947871;28;20606;-38
2022/06/03 10:44:23;;;;;;;1.20;1.10;;;20.80;84.60;;;;;;4946934;28;20034;-37
2022/06/03 10:47:05;;;;;;;1.83;1.15;;;20.90;84.50;;;;;;4947995;29;20343;-38
2022/06/03 10:49:36;;;;;;;1.00;1.00;;;20.90;84.10;;;;;;4945617;29;20019;-38
2022/06/03 11:03:31;;;;;;;2.60;1.70;;;21.10;80.80;;;;;;4947150;29;20066;-37
2022/06/03 11:05:57;;;;;;;1.40;1.30;;;21.20;80.70;;;;;;4946503;28;20374;-37
2022/06/03 11:08:22;;;;;;;2.30;1.40;;;21.20;80.60;;;;;;4947565;29;20032;-37
2022/06/03 11:10:52;;;;;;;1.17;1.08;;;21.30;80.60;;;;;;4948176;28;20027;-36
2022/06/03 11:13:32;;;;;;;1.33;1.23;;;21.30;80.90;;;;;;4946135;28;20102;-37
2022/06/03 11:16:24;;;;;;;2.80;1.10;;;21.40;80.90;;;;;;4947318;28;20266;-39
2022/06/03 11:18:49;;;;;;;1.33;1.23;;;21.40;80.70;;;;;;4947698;29;20472;-37
2022/06/03 11:21:28;;;;;;;1.30;1.20;;;21.40;80.00;;;;;;4947042;29;20055;-37
2022/06/03 11:23:56;;;;;;;1.20;1.10;;;21.50;79.70;;;;;;4947255;28;20043;-38
2022/06/03 11:26:30;;;;;;;0.90;0.90;;;21.50;79.80;;;;;;4946730;28;20035;-36
2022/06/03 11:29:07;;;;;;;1.45;1.10;;;21.50;79.90;;;;;;4946793;29;20115;-38
2022/06/03 11:31:41;;;;;;;1.27;1.00;;;21.60;79.90;;;;;;4946955;28;20136;-39
2022/06/03 11:34:16;;;;;;;1.23;1.10;;;21.60;79.80;;;;;;4946751;28;20495;-38
2022/06/03 11:37:02;;;;;;;2.55;1.40;;;21.70;79.40;;;;;;4947136;28;20483;-36
2022/06/03 11:39:46;;;;;;;1.40;1.27;;;21.80;78.20;;;;;;4946925;29;20034;-37
2022/06/03 11:42:23;;;;;;;1.23;1.13;;;21.80;77.90;;;;;;4946191;28;20522;-37
2022/06/03 11:45:09;;;;;;;0.98;0.93;;;21.80;77.70;;;;;;4946775;29;20066;-37
2022/06/03 11:47:49;;;;;;;1.02;0.70;;;21.90;77.80;;;;;;4948533;28;20122;-38
2022/06/03 11:50:20;;;;;;;0.93;0.93;;;21.90;77.40;;;;;;4946667;28;20110;-37
2022/06/03 11:52:48;;;;;;;1.25;1.00;;;22.10;77.20;;;;;;4947148;28;20318;-38
2022/06/03 11:55:14;;;;;;;1.27;0.70;;;22.20;77.30;;;;;;4948882;28;20302;-37
2022/06/03 11:57:49;;;;;;;1.10;1.00;;;22.20;77.40;;;;;;4950088;29;20098;-38
2022/06/03 12:00:19;;;;;;;1.10;1.00;;;22.30;76.80;;;;;;4949780;28;20075;-37
2022/06/03 12:02:51;;;;;;;0.80;0.80;;;22.30;76.50;;;;;;4950189;28;20027;-36
2022/06/03 12:05:24;;;;;;;1.13;0.87;;;22.40;76.70;;;;;;4950492;29;20039;-37
2022/06/03 12:08:08;;;;;;;1.38;0.82;;;22.40;76.50;;;;;;4951552;28;20138;-38
2022/06/03 12:10:52;;;;;;;0.93;0.85;;;22.50;76.60;;;;;;4949611;29;20035;-39
2022/06/03 12:13:31;;;;;;;1.00;1.00;;;22.50;76.70;;;;;;4946155;29;20027;-38
2022/06/03 12:15:56;;;;;;;1.80;0.73;;;22.60;76.00;;;;;;4949613;28;20031;-38
2022/06/03 12:18:37;;;;;;;0.80;0.80;;;22.60;76.10;;;;;;4949980;28;20508;-38
2022/06/03 12:21:06;;;;;;;1.30;1.20;;;22.70;75.70;;;;;;4950280;28;20038;-40
2022/06/03 12:23:37;;;;;;;1.20;1.10;;;22.80;74.50;;;;;;4948901;28;20154;-37
2022/06/03 12:26:09;;;;;;;0.82;0.70;;;22.80;74.50;;;;;;4950290;29;20041;-38
2022/06/03 12:28:37;;;;;;;0.70;0.70;;;22.80;74.80;;;;;;4950130;28;20039;-37
2022/06/03 12:31:14;;;;;;;1.00;0.90;;;22.80;75.10;;;;;;4949113;29;20089;-37
2022/06/03 12:33:58;;;;;;;0.85;0.70;;;22.90;74.90;;;;;;4949957;28;20066;-38
2022/06/03 12:36:50;;;;;;;3.33;1.83;;;22.90;74.60;;;;;;4949641;29;20023;-36
2022/06/03 12:39:19;;;;;;;1.10;1.00;;;22.90;73.90;;;;;;4950862;28;20545;-38
2022/06/03 12:41:44;;;;;;;1.25;1.15;;;23.00;74.00;;;;;;4949685;28;20115;-39
2022/06/03 12:44:41;;;;;;;1.35;1.23;;;23.00;73.70;;;;;;4949271;29;20019;-38
2022/06/03 12:47:18;;;;;;;2.58;1.10;;;23.00;73.50;;;;;;4950014;29;20031;-38
2022/06/03 12:49:44;;;;;;;1.50;1.20;;;22.90;73.10;;;;;;4950147;29;20259;-38
2022/06/03 12:52:21;;;;;;;1.30;1.20;;;22.90;73.10;;;;;;4948913;28;20498;-37
2022/06/03 12:54:56;;;;;;;0.93;0.90;;;23.00;72.30;;;;;;4949569;29;20127;-38
2022/06/03 12:57:49;;;;;;;1.33;0.90;;;23.00;72.40;;;;;;4949484;28;20132;-38
2022/06/03 13:00:26;;;;;;;0.90;0.90;;;23.00;72.70;;;;;;4949964;29;20157;-41
2022/06/03 13:02:59;;;;;;;1.05;1.05;;;23.00;72.90;;;;;;4949307;28;20027;-38
2022/06/03 13:05:36;;;;;;;1.48;1.02;;;23.00;72.70;;;;;;4948760;29;20142;-38
2022/06/03 13:08:06;;;;;;;2.30;0.90;;;23.00;72.20;;;;;;4949707;28;20035;-38
2022/06/03 13:11:00;;;;;;;2.15;1.15;;;23.10;72.20;;;;;;4949401;29;20485;-38
2022/06/03 13:13:32;;;;;;;1.27;1.17;;;23.10;72.20;;;;;;4948634;28;20027;-38
2022/06/03 13:16:17;;;;;;;1.30;1.20;;;23.20;71.50;;;;;;4931585;29;20119;-37
2022/06/03 13:18:45;;;;;;;1.58;1.35;;;23.20;71.20;;;;;;4946234;29;20490;-39
2022/06/03 13:21:13;;;;;;;1.00;0.90;;;23.20;71.30;;;;;;4949085;28;20474;-37
2022/06/03 13:23:41;;;;;;;0.98;0.90;;;23.30;71.40;;;;;;4949102;29;20198;-39
2022/06/03 13:26:22;;;;;;;1.05;1.05;;;23.30;71.20;;;;;;4948934;29;20086;-38
2022/06/03 13:28:48;;;;;;;0.60;0.60;;;23.30;71.20;;;;;;4949133;29;20101;-38
2022/06/03 13:31:40;;;;;;;1.48;0.70;;;23.40;71.30;;;;;;4948872;29;20035;-38
2022/06/03 13:34:12;;;;;;;0.80;0.80;;;23.50;71.40;;;;;;4948299;28;20027;-39
2022/06/03 13:36:40;;;;;;;1.50;1.10;;;23.60;71.40;;;;;;4930282;29;20062;-37
2022/06/03 13:39:13;;;;;;;1.02;0.90;;;23.80;70.70;;;;;;4944277;29;20347;-38
2022/06/03 13:44:44;;;;;;;1.27;0.90;;;24.00;70.80;;;;;;4948294;28;20645;-37
2022/06/03 13:47:20;;;;;;;1.77;1.10;;;24.10;70.80;;;;;;4929490;29;20395;-37
2022/06/03 13:50:02;;;;;;;2.92;1.35;;;24.20;70.40;;;;;;4946024;29;20023;-38
2022/06/03 13:52:32;;;;;;;1.52;1.42;;;24.20;69.40;;;;;;4948600;29;20113;-37
2022/06/03 13:55:34;;;;;;;3.90;1.48;;;24.20;68.80;;;;;;4947625;28;20399;-36
2022/06/03 13:58:14;;;;;;;1.77;1.60;;;24.30;68.30;;;;;;4948899;29;20043;-36
2022/06/03 14:01:03;;;;;;;1.55;1.23;;;24.30;68.30;;;;;;4949027;29;20429;-36
2022/06/03 14:03:41;;;;;;;1.00;1.00;;;24.40;68.90;;;;;;4947451;28;20478;-37
2022/06/03 14:06:31;;;;;;;0.93;0.93;;;24.40;69.20;;;;;;4948815;28;20037;-38
2022/06/03 14:09:27;;;;;;;1.00;1.00;;;24.40;69.40;;;;;;4947255;28;20023;-37
2022/06/03 14:12:10;;;;;;;1.20;1.10;;;24.40;69.50;;;;;;4942328;29;20037;-37
2022/06/03 14:14:49;;;;;;;1.48;1.38;;;24.50;69.40;;;;;;4948128;28;20019;-37
2022/06/03 14:17:28;;;;;;;1.73;1.60;;;24.50;67.50;;;;;;4947480;29;20090;-36
2022/06/03 14:20:21;;;;;;;1.38;1.27;;;24.40;67.40;;;;;;4948150;28;20055;-37
2022/06/03 14:23:31;;;;;;;1.23;1.10;;;24.40;67.50;;;;;;4944661;29;20039;-36
2022/06/03 14:26:05;;;;;;;1.33;1.20;;;24.40;67.20;;;;;;4947024;28;20597;-37
2022/06/03 14:29:12;;;;;;;1.08;0.98;;;24.40;67.30;;;;;;4948276;28;20063;-36
2022/06/03 14:32:03;;;;;;;1.10;1.00;;;24.40;67.70;;;;;;4920957;29;20067;-38
2022/06/03 14:34:55;;;;;;;1.23;1.00;;;24.40;67.90;;;;;;4947187;28;20074;-37